sensor_id;sensor_type;location;lat;lon;timestamp;temperature;humidity
59855;DHT22;45732;52.850;6.896;2023-09-30T00:00:14;12.70;99.90
59855;DHT22;45732;52.850;6.896;2023-09-30T00:02:40;12.70;99.90
59855;DHT22;45732;52.850;6.896;2023-09-30T00:05:06;12.70;99.90
59855;DHT22;45732;52.850;6.896;2023-09-30T00:07:33;12.70;99.90
59855;DHT22;45732;52.850;6.896;2023-09-30T00:09:59;12.70;99.90
59855;DHT22;45732;52.850;6.896;2023-09-30T00:12:26;12.70;99.90
59855;DHT22;45732;52.850;6.896;2023-09-30T00:14:52;12.70;99.90
59855;DHT22;45732;52.850;6.896;2023-09-30T00:17:18;12.70;99.90
59855;DHT22;45732;52.850;6.896;2023-09-30T00:19:44;12.80;99.90
59855;DHT22;45732;52.850;6.896;2023-09-30T00:22:10;12.70;99.90
59855;DHT22;45732;52.850;6.896;2023-09-30T00:24:36;12.70;99.90
59855;DHT22;45732;52.850;6.896;2023-09-30T00:27:01;12.60;99.90
59855;DHT22;45732;52.850;6.896;2023-09-30T00:29:27;12.70;99.90
59855;DHT22;45732;52.850;6.896;2023-09-30T00:31:53;12.70;99.90
59855;DHT22;45732;52.850;6.896;2023-09-30T00:34:19;12.60;99.90
59855;DHT22;45732;52.850;6.896;2023-09-30T00:36:44;12.60;99.90
59855;DHT22;45732;52.850;6.896;2023-09-30T00:39:10;12.60;99.90
59855;DHT22;45732;52.850;6.896;2023-09-30T00:41:38;12.60;99.90
59855;DHT22;45732;52.850;6.896;2023-09-30T00:44:04;12.60;99.90
59855;DHT22;45732;52.850;6.896;2023-09-30T00:46:32;12.60;99.90
59855;DHT22;45732;52.850;6.896;2023-09-30T00:48:59;12.60;99.90
59855;DHT22;45732;52.850;6.896;2023-09-30T00:51:26;12.60;99.90
59855;DHT22;45732;52.850;6.896;2023-09-30T00:53:53;12.60;99.90
59855;DHT22;45732;52.850;6.896;2023-09-30T00:56:23;12.60;99.90
59855;DHT22;45732;52.850;6.896;2023-09-30T00:58:51;12.50;99.90
59855;DHT22;45732;52.850;6.896;2023-09-30T01:01:19;12.50;99.90
59855;DHT22;45732;52.850;6.896;2023-09-30T01:03:48;12.50;99.90
59855;DHT22;45732;52.850;6.896;2023-09-30T01:06:14;12.50;99.90
59855;DHT22;45732;52.850;6.896;2023-09-30T01:08:40;12.50;99.90
59855;DHT22;45732;52.850;6.896;2023-09-30T01:11:07;12.50;99.90
59855;DHT22;45732;52.850;6.896;2023-09-30T01:13:37;12.50;99.90
59855;DHT22;45732;52.850;6.896;2023-09-30T01:16:09;12.50;99.90
59855;DHT22;45732;52.850;6.896;2023-09-30T01:18:36;12.50;99.90
59855;DHT22;45732;52.850;6.896;2023-09-30T01:21:03;12.50;99.90
59855;DHT22;45732;52.850;6.896;2023-09-30T01:23:31;12.50;99.90
59855;DHT22;45732;52.850;6.896;2023-09-30T01:25:57;12.50;99.90
59855;DHT22;45732;52.850;6.896;2023-09-30T01:28:24;12.50;99.90
59855;DHT22;45732;52.850;6.896;2023-09-30T01:30:50;12.50;99.90
59855;DHT22;45732;52.850;6.896;2023-09-30T01:33:16;12.50;99.90
59855;DHT22;45732;52.850;6.896;2023-09-30T01:35:42;12.50;99.90
59855;DHT22;45732;52.850;6.896;2023-09-30T01:38:07;12.50;99.90
59855;DHT22;45732;52.850;6.896;2023-09-30T01:40:33;12.50;99.90
59855;DHT22;45732;52.850;6.896;2023-09-30T01:42:59;12.50;99.90
59855;DHT22;45732;52.850;6.896;2023-09-30T01:45:24;12.50;99.90
59855;DHT22;45732;52.850;6.896;2023-09-30T01:47:50;12.40;99.90
59855;DHT22;45732;52.850;6.896;2023-09-30T01:50:16;12.40;99.90
59855;DHT22;45732;52.850;6.896;2023-09-30T01:52:42;12.40;99.90
59855;DHT22;45732;52.850;6.896;2023-09-30T01:55:08;12.40;99.90
59855;DHT22;45732;52.850;6.896;2023-09-30T01:57:34;12.40;99.90
59855;DHT22;45732;52.850;6.896;2023-09-30T01:59:59;12.40;99.90
59855;DHT22;45732;52.850;6.896;2023-09-30T02:02:25;12.40;99.90
59855;DHT22;45732;52.850;6.896;2023-09-30T02:04:51;12.40;99.90
59855;DHT22;45732;52.850;6.896;2023-09-30T02:07:19;12.40;99.90
59855;DHT22;45732;52.850;6.896;2023-09-30T02:09:44;12.40;99.90
59855;DHT22;45732;52.850;6.896;2023-09-30T02:12:10;12.40;99.90
59855;DHT22;45732;52.850;6.896;2023-09-30T02:14:38;12.40;99.90
59855;DHT22;45732;52.850;6.896;2023-09-30T02:17:04;12.40;99.90
59855;DHT22;45732;52.850;6.896;2023-09-30T02:19:30;12.40;99.90
59855;DHT22;45732;52.850;6.896;2023-09-30T02:21:57;12.40;99.90
59855;DHT22;45732;52.850;6.896;2023-09-30T02:24:22;12.40;99.90
59855;DHT22;45732;52.850;6.896;2023-09-30T02:26:48;12.40;99.90
59855;DHT22;45732;52.850;6.896;2023-09-30T02:29:14;12.40;99.90
59855;DHT22;45732;52.850;6.896;2023-09-30T02:31:40;12.40;99.90
59855;DHT22;45732;52.850;6.896;2023-09-30T02:34:06;12.40;99.90
59855;DHT22;45732;52.850;6.896;2023-09-30T02:36:33;12.40;99.90
59855;DHT22;45732;52.850;6.896;2023-09-30T02:39:01;12.40;99.90
59855;DHT22;45732;52.850;6.896;2023-09-30T02:41:27;12.40;99.90
59855;DHT22;45732;52.850;6.896;2023-09-30T02:43:52;12.40;99.90
59855;DHT22;45732;52.850;6.896;2023-09-30T02:46:18;12.40;99.90
59855;DHT22;45732;52.850;6.896;2023-09-30T02:48:44;12.40;99.90
59855;DHT22;45732;52.850;6.896;2023-09-30T02:51:10;12.40;99.90
59855;DHT22;45732;52.850;6.896;2023-09-30T02:53:36;12.40;99.90
59855;DHT22;45732;52.850;6.896;2023-09-30T02:56:02;12.40;99.90
59855;DHT22;45732;52.850;6.896;2023-09-30T02:58:30;12.40;99.90
59855;DHT22;45732;52.850;6.896;2023-09-30T03:00:56;12.50;99.90
59855;DHT22;45732;52.850;6.896;2023-09-30T03:03:21;12.40;99.90
59855;DHT22;45732;52.850;6.896;2023-09-30T03:05:48;12.40;99.90
59855;DHT22;45732;52.850;6.896;2023-09-30T03:08:15;12.40;99.90
59855;DHT22;45732;52.850;6.896;2023-09-30T03:10:41;12.50;99.90
59855;DHT22;45732;52.850;6.896;2023-09-30T03:13:07;12.40;99.90
59855;DHT22;45732;52.850;6.896;2023-09-30T03:15:35;12.40;99.90
59855;DHT22;45732;52.850;6.896;2023-09-30T03:18:01;12.40;99.90
59855;DHT22;45732;52.850;6.896;2023-09-30T03:20:27;12.40;99.90
59855;DHT22;45732;52.850;6.896;2023-09-30T03:22:53;12.40;99.90
59855;DHT22;45732;52.850;6.896;2023-09-30T03:25:20;12.40;99.90
59855;DHT22;45732;52.850;6.896;2023-09-30T03:27:46;12.40;99.90
59855;DHT22;45732;52.850;6.896;2023-09-30T03:30:13;12.40;99.90
59855;DHT22;45732;52.850;6.896;2023-09-30T03:32:41;12.40;99.90
59855;DHT22;45732;52.850;6.896;2023-09-30T03:35:11;12.40;99.90
59855;DHT22;45732;52.850;6.896;2023-09-30T03:37:45;12.40;99.90
59855;DHT22;45732;52.850;6.896;2023-09-30T03:40:13;12.40;99.90
59855;DHT22;45732;52.850;6.896;2023-09-30T03:42:40;12.40;99.90
59855;DHT22;45732;52.850;6.896;2023-09-30T03:45:08;12.30;99.90
59855;DHT22;45732;52.850;6.896;2023-09-30T03:47:38;12.30;99.90
59855;DHT22;45732;52.850;6.896;2023-09-30T03:50:05;12.30;99.90
59855;DHT22;45732;52.850;6.896;2023-09-30T03:52:33;12.30;99.90
59855;DHT22;45732;52.850;6.896;2023-09-30T03:55:02;12.20;99.90
59855;DHT22;45732;52.850;6.896;2023-09-30T03:57:34;12.30;99.90
59855;DHT22;45732;52.850;6.896;2023-09-30T04:00:00;12.30;99.90
59855;DHT22;45732;52.850;6.896;2023-09-30T04:02:26;12.20;99.90
59855;DHT22;45732;52.850;6.896;2023-09-30T04:04:52;12.20;99.90
59855;DHT22;45732;52.850;6.896;2023-09-30T04:07:21;12.20;99.90
59855;DHT22;45732;52.850;6.896;2023-09-30T04:09:47;12.20;99.90
59855;DHT22;45732;52.850;6.896;2023-09-30T04:12:12;12.20;99.90
59855;DHT22;45732;52.850;6.896;2023-09-30T04:14:38;12.20;99.90
59855;DHT22;45732;52.850;6.896;2023-09-30T04:17:04;12.20;99.90
59855;DHT22;45732;52.850;6.896;2023-09-30T04:19:30;12.20;99.90
59855;DHT22;45732;52.850;6.896;2023-09-30T04:21:56;12.20;99.90
59855;DHT22;45732;52.850;6.896;2023-09-30T04:24:22;12.20;99.90
59855;DHT22;45732;52.850;6.896;2023-09-30T04:26:48;12.20;99.90
59855;DHT22;45732;52.850;6.896;2023-09-30T04:29:16;12.20;99.90
59855;DHT22;45732;52.850;6.896;2023-09-30T04:31:41;12.20;99.90
59855;DHT22;45732;52.850;6.896;2023-09-30T04:34:07;12.20;99.90
59855;DHT22;45732;52.850;6.896;2023-09-30T04:36:33;12.20;99.90
59855;DHT22;45732;52.850;6.896;2023-09-30T04:39:00;12.20;99.90
59855;DHT22;45732;52.850;6.896;2023-09-30T04:41:26;12.20;99.90
59855;DHT22;45732;52.850;6.896;2023-09-30T04:43:52;12.20;99.90
59855;DHT22;45732;52.850;6.896;2023-09-30T04:46:18;12.20;99.90
59855;DHT22;45732;52.850;6.896;2023-09-30T04:48:47;12.20;99.90
59855;DHT22;45732;52.850;6.896;2023-09-30T04:51:14;12.20;99.90
59855;DHT22;45732;52.850;6.896;2023-09-30T04:53:42;12.20;99.90
59855;DHT22;45732;52.850;6.896;2023-09-30T04:56:07;12.20;99.90
59855;DHT22;45732;52.850;6.896;2023-09-30T04:58:33;12.10;99.90
59855;DHT22;45732;52.850;6.896;2023-09-30T05:00:59;12.10;99.90
59855;DHT22;45732;52.850;6.896;2023-09-30T05:03:24;12.10;99.90
59855;DHT22;45732;52.850;6.896;2023-09-30T05:05:52;12.10;99.90
59855;DHT22;45732;52.850;6.896;2023-09-30T05:08:19;12.10;99.90
59855;DHT22;45732;52.850;6.896;2023-09-30T05:10:45;12.10;99.90
59855;DHT22;45732;52.850;6.896;2023-09-30T05:13:11;12.10;99.90
59855;DHT22;45732;52.850;6.896;2023-09-30T05:15:38;12.10;99.90
59855;DHT22;45732;52.850;6.896;2023-09-30T05:18:03;12.10;99.90
59855;DHT22;45732;52.850;6.896;2023-09-30T05:20:30;12.10;99.90
59855;DHT22;45732;52.850;6.896;2023-09-30T05:22:56;12.10;99.90
59855;DHT22;45732;52.850;6.896;2023-09-30T05:25:21;12.10;99.90
59855;DHT22;45732;52.850;6.896;2023-09-30T05:27:51;12.10;99.90
59855;DHT22;45732;52.850;6.896;2023-09-30T05:30:17;12.00;99.90
59855;DHT22;45732;52.850;6.896;2023-09-30T05:32:45;12.00;99.90
59855;DHT22;45732;52.850;6.896;2023-09-30T05:35:12;12.00;99.90
59855;DHT22;45732;52.850;6.896;2023-09-30T05:37:44;12.00;99.90
59855;DHT22;45732;52.850;6.896;2023-09-30T05:40:13;12.00;99.90
59855;DHT22;45732;52.850;6.896;2023-09-30T05:42:47;12.00;99.90
59855;DHT22;45732;52.850;6.896;2023-09-30T05:45:15;12.00;99.90
59855;DHT22;45732;52.850;6.896;2023-09-30T05:47:41;12.00;99.90
59855;DHT22;45732;52.850;6.896;2023-09-30T05:50:08;12.00;99.90
59855;DHT22;45732;52.850;6.896;2023-09-30T05:52:42;12.00;99.90
59855;DHT22;45732;52.850;6.896;2023-09-30T05:55:09;12.00;99.90
59855;DHT22;45732;52.850;6.896;2023-09-30T05:57:34;12.00;99.90
59855;DHT22;45732;52.850;6.896;2023-09-30T06:00:01;12.00;99.90
59855;DHT22;45732;52.850;6.896;2023-09-30T06:02:26;12.00;99.90
59855;DHT22;45732;52.850;6.896;2023-09-30T06:04:52;12.00;99.90
59855;DHT22;45732;52.850;6.896;2023-09-30T06:07:19;12.00;99.90
59855;DHT22;45732;52.850;6.896;2023-09-30T06:09:46;12.00;99.90
59855;DHT22;45732;52.850;6.896;2023-09-30T06:12:15;12.00;99.90
59855;DHT22;45732;52.850;6.896;2023-09-30T06:14:40;12.10;99.90
59855;DHT22;45732;52.850;6.896;2023-09-30T06:17:07;12.10;99.90
59855;DHT22;45732;52.850;6.896;2023-09-30T06:19:33;12.00;99.90
59855;DHT22;45732;52.850;6.896;2023-09-30T06:21:59;12.10;99.90
59855;DHT22;45732;52.850;6.896;2023-09-30T06:24:25;12.00;99.90
59855;DHT22;45732;52.850;6.896;2023-09-30T06:26:50;12.20;99.90
59855;DHT22;45732;52.850;6.896;2023-09-30T06:29:17;12.20;99.90
59855;DHT22;45732;52.850;6.896;2023-09-30T06:31:42;12.20;99.90
59855;DHT22;45732;52.850;6.896;2023-09-30T06:34:08;12.30;99.90
59855;DHT22;45732;52.850;6.896;2023-09-30T06:36:36;12.40;99.90
59855;DHT22;45732;52.850;6.896;2023-09-30T06:39:03;12.40;99.90
59855;DHT22;45732;52.850;6.896;2023-09-30T06:41:31;12.40;99.90
59855;DHT22;45732;52.850;6.896;2023-09-30T06:43:57;12.40;99.90
59855;DHT22;45732;52.850;6.896;2023-09-30T06:46:23;12.40;99.90
59855;DHT22;45732;52.850;6.896;2023-09-30T06:48:49;12.40;99.90
59855;DHT22;45732;52.850;6.896;2023-09-30T06:51:17;12.50;99.90
59855;DHT22;45732;52.850;6.896;2023-09-30T06:53:43;12.50;99.90
59855;DHT22;45732;52.850;6.896;2023-09-30T06:56:09;12.50;99.90
59855;DHT22;45732;52.850;6.896;2023-09-30T06:58:35;12.50;99.90
59855;DHT22;45732;52.850;6.896;2023-09-30T07:01:01;12.60;99.90
59855;DHT22;45732;52.850;6.896;2023-09-30T07:03:27;12.60;99.90
59855;DHT22;45732;52.850;6.896;2023-09-30T07:05:53;12.60;99.90
59855;DHT22;45732;52.850;6.896;2023-09-30T07:08:19;12.60;99.90
59855;DHT22;45732;52.850;6.896;2023-09-30T07:10:48;12.60;99.90
59855;DHT22;45732;52.850;6.896;2023-09-30T07:13:18;12.70;99.90
59855;DHT22;45732;52.850;6.896;2023-09-30T07:15:44;12.80;99.90
59855;DHT22;45732;52.850;6.896;2023-09-30T07:18:09;12.80;99.90
59855;DHT22;45732;52.850;6.896;2023-09-30T07:20:35;12.80;99.90
59855;DHT22;45732;52.850;6.896;2023-09-30T07:23:01;12.90;99.90
59855;DHT22;45732;52.850;6.896;2023-09-30T07:25:29;12.90;99.90
59855;DHT22;45732;52.850;6.896;2023-09-30T07:27:58;13.00;99.90
59855;DHT22;45732;52.850;6.896;2023-09-30T07:30:25;13.00;99.90
59855;DHT22;45732;52.850;6.896;2023-09-30T07:32:50;13.00;99.90
59855;DHT22;45732;52.850;6.896;2023-09-30T07:35:17;13.10;99.90
59855;DHT22;45732;52.850;6.896;2023-09-30T07:37:43;13.20;99.90
59855;DHT22;45732;52.850;6.896;2023-09-30T07:40:10;13.20;99.90
59855;DHT22;45732;52.850;6.896;2023-09-30T07:42:36;13.30;99.90
59855;DHT22;45732;52.850;6.896;2023-09-30T07:45:05;13.40;99.90
59855;DHT22;45732;52.850;6.896;2023-09-30T07:47:31;13.40;99.90
59855;DHT22;45732;52.850;6.896;2023-09-30T07:49:59;13.50;99.90
59855;DHT22;45732;52.850;6.896;2023-09-30T07:52:26;13.50;99.90
59855;DHT22;45732;52.850;6.896;2023-09-30T07:54:51;13.60;99.90
59855;DHT22;45732;52.850;6.896;2023-09-30T07:57:17;13.60;99.90
59855;DHT22;45732;52.850;6.896;2023-09-30T07:59:42;13.60;99.90
59855;DHT22;45732;52.850;6.896;2023-09-30T08:02:08;13.70;99.90
59855;DHT22;45732;52.850;6.896;2023-09-30T08:04:34;13.80;99.90
59855;DHT22;45732;52.850;6.896;2023-09-30T08:06:59;13.80;99.90
59855;DHT22;45732;52.850;6.896;2023-09-30T08:09:25;13.90;99.90
59855;DHT22;45732;52.850;6.896;2023-09-30T08:11:53;14.00;99.90
59855;DHT22;45732;52.850;6.896;2023-09-30T08:14:19;14.10;99.90
59855;DHT22;45732;52.850;6.896;2023-09-30T08:16:45;14.20;99.90
59855;DHT22;45732;52.850;6.896;2023-09-30T08:19:11;14.20;99.90
59855;DHT22;45732;52.850;6.896;2023-09-30T08:21:37;14.20;99.90
59855;DHT22;45732;52.850;6.896;2023-09-30T08:24:02;14.30;99.90
59855;DHT22;45732;52.850;6.896;2023-09-30T08:26:29;14.30;99.90
59855;DHT22;45732;52.850;6.896;2023-09-30T08:28:55;14.40;99.90
59855;DHT22;45732;52.850;6.896;2023-09-30T08:31:20;14.50;99.90
59855;DHT22;45732;52.850;6.896;2023-09-30T08:33:47;14.50;99.90
59855;DHT22;45732;52.850;6.896;2023-09-30T08:36:13;14.60;99.90
59855;DHT22;45732;52.850;6.896;2023-09-30T08:38:40;14.60;99.90
59855;DHT22;45732;52.850;6.896;2023-09-30T08:41:06;14.70;99.90
59855;DHT22;45732;52.850;6.896;2023-09-30T08:43:38;14.70;99.90
59855;DHT22;45732;52.850;6.896;2023-09-30T08:46:04;14.80;99.90
59855;DHT22;45732;52.850;6.896;2023-09-30T08:48:32;14.80;99.90
59855;DHT22;45732;52.850;6.896;2023-09-30T08:50:59;14.90;99.90
59855;DHT22;45732;52.850;6.896;2023-09-30T08:53:25;14.80;99.90
59855;DHT22;45732;52.850;6.896;2023-09-30T08:55:55;14.90;99.90
59855;DHT22;45732;52.850;6.896;2023-09-30T08:58:27;14.90;99.90
59855;DHT22;45732;52.850;6.896;2023-09-30T09:00:54;14.90;99.90
59855;DHT22;45732;52.850;6.896;2023-09-30T09:03:21;15.00;99.90
59855;DHT22;45732;52.850;6.896;2023-09-30T09:05:56;15.10;99.90
59855;DHT22;45732;52.850;6.896;2023-09-30T09:08:26;15.10;99.90
59855;DHT22;45732;52.850;6.896;2023-09-30T09:10:59;15.10;99.90
59855;DHT22;45732;52.850;6.896;2023-09-30T09:13:27;15.10;99.90
59855;DHT22;45732;52.850;6.896;2023-09-30T09:16:08;15.10;99.90
59855;DHT22;45732;52.850;6.896;2023-09-30T09:18:34;15.10;99.90
59855;DHT22;45732;52.850;6.896;2023-09-30T09:23:47;15.30;99.90
59855;DHT22;45732;52.850;6.896;2023-09-30T09:26:29;15.40;99.90
59855;DHT22;45732;52.850;6.896;2023-09-30T09:28:59;15.40;99.90
59855;DHT22;45732;52.850;6.896;2023-09-30T09:31:31;15.50;99.90
59855;DHT22;45732;52.850;6.896;2023-09-30T09:33:57;15.50;99.90
59855;DHT22;45732;52.850;6.896;2023-09-30T09:36:41;15.50;99.90
59855;DHT22;45732;52.850;6.896;2023-09-30T09:39:07;15.60;99.90
59855;DHT22;45732;52.850;6.896;2023-09-30T09:41:52;15.60;99.90
59855;DHT22;45732;52.850;6.896;2023-09-30T09:44:20;15.70;99.90
59855;DHT22;45732;52.850;6.896;2023-09-30T09:46:47;15.80;99.90
59855;DHT22;45732;52.850;6.896;2023-09-30T09:49:16;15.90;99.90
59855;DHT22;45732;52.850;6.896;2023-09-30T09:51:44;16.00;99.90
59855;DHT22;45732;52.850;6.896;2023-09-30T09:54:11;16.00;99.90
59855;DHT22;45732;52.850;6.896;2023-09-30T09:56:39;16.20;99.90
59855;DHT22;45732;52.850;6.896;2023-09-30T09:59:05;16.20;99.90
59855;DHT22;45732;52.850;6.896;2023-09-30T10:01:33;16.30;99.90
59855;DHT22;45732;52.850;6.896;2023-09-30T10:04:01;16.30;99.90
59855;DHT22;45732;52.850;6.896;2023-09-30T10:06:27;16.40;99.90
59855;DHT22;45732;52.850;6.896;2023-09-30T10:08:54;16.50;99.90
59855;DHT22;45732;52.850;6.896;2023-09-30T10:11:23;16.50;99.90
59855;DHT22;45732;52.850;6.896;2023-09-30T10:13:58;16.60;99.90
59855;DHT22;45732;52.850;6.896;2023-09-30T10:16:47;16.70;99.90
59855;DHT22;45732;52.850;6.896;2023-09-30T10:19:19;16.70;99.90
59855;DHT22;45732;52.850;6.896;2023-09-30T10:24:41;16.80;99.90
59855;DHT22;45732;52.850;6.896;2023-09-30T10:35:11;17.00;99.90
59855;DHT22;45732;52.850;6.896;2023-09-30T10:37:37;17.10;99.90
59855;DHT22;45732;52.850;6.896;2023-09-30T10:40:03;17.10;99.90
59855;DHT22;45732;52.850;6.896;2023-09-30T10:42:51;17.20;99.90
59855;DHT22;45732;52.850;6.896;2023-09-30T10:50:59;17.30;99.90
59855;DHT22;45732;52.850;6.896;2023-09-30T10:53:27;17.40;99.90
59855;DHT22;45732;52.850;6.896;2023-09-30T10:55:57;17.40;99.90
59855;DHT22;45732;52.850;6.896;2023-09-30T10:58:42;17.50;99.90
59855;DHT22;45732;52.850;6.896;2023-09-30T11:01:09;17.60;99.90
59855;DHT22;45732;52.850;6.896;2023-09-30T11:03:35;17.50;99.90
59855;DHT22;45732;52.850;6.896;2023-09-30T11:06:00;17.50;99.90
59855;DHT22;45732;52.850;6.896;2023-09-30T11:08:28;17.40;99.90
59855;DHT22;45732;52.850;6.896;2023-09-30T11:10:57;17.40;99.90
59855;DHT22;45732;52.850;6.896;2023-09-30T11:13:23;17.30;99.90
59855;DHT22;45732;52.850;6.896;2023-09-30T11:16:01;17.30;99.90
59855;DHT22;45732;52.850;6.896;2023-09-30T11:18:28;17.30;99.90
59855;DHT22;45732;52.850;6.896;2023-09-30T11:21:10;17.40;99.90
59855;DHT22;45732;52.850;6.896;2023-09-30T11:23:37;17.40;99.90
59855;DHT22;45732;52.850;6.896;2023-09-30T11:26:04;17.40;99.90
59855;DHT22;45732;52.850;6.896;2023-09-30T11:28:44;17.40;99.90
59855;DHT22;45732;52.850;6.896;2023-09-30T11:31:14;17.50;99.90
59855;DHT22;45732;52.850;6.896;2023-09-30T11:33:48;17.50;99.90
59855;DHT22;45732;52.850;6.896;2023-09-30T11:36:15;17.50;99.90
59855;DHT22;45732;52.850;6.896;2023-09-30T11:38:45;17.60;99.90
59855;DHT22;45732;52.850;6.896;2023-09-30T11:41:12;17.70;99.90
59855;DHT22;45732;52.850;6.896;2023-09-30T11:43:38;17.70;99.90
59855;DHT22;45732;52.850;6.896;2023-09-30T11:48:35;17.90;99.90
59855;DHT22;45732;52.850;6.896;2023-09-30T11:51:01;17.80;99.90
59855;DHT22;45732;52.850;6.896;2023-09-30T11:53:31;17.90;99.90
59855;DHT22;45732;52.850;6.896;2023-09-30T11:56:00;17.90;99.90
59855;DHT22;45732;52.850;6.896;2023-09-30T11:58:28;18.00;99.90
59855;DHT22;45732;52.850;6.896;2023-09-30T12:00:54;18.00;99.90
59855;DHT22;45732;52.850;6.896;2023-09-30T12:03:20;17.90;99.90
59855;DHT22;45732;52.850;6.896;2023-09-30T12:05:47;17.90;99.90
59855;DHT22;45732;52.850;6.896;2023-09-30T12:08:13;18.00;99.90
59855;DHT22;45732;52.850;6.896;2023-09-30T12:10:40;18.00;99.90
59855;DHT22;45732;52.850;6.896;2023-09-30T12:13:05;18.10;99.90
59855;DHT22;45732;52.850;6.896;2023-09-30T12:15:31;18.00;99.90
59855;DHT22;45732;52.850;6.896;2023-09-30T12:17:57;18.10;99.90
59855;DHT22;45732;52.850;6.896;2023-09-30T12:20:23;18.10;99.90
59855;DHT22;45732;52.850;6.896;2023-09-30T12:22:49;18.00;99.90
59855;DHT22;45732;52.850;6.896;2023-09-30T12:25:15;18.00;99.90
59855;DHT22;45732;52.850;6.896;2023-09-30T12:27:44;18.00;99.90
59855;DHT22;45732;52.850;6.896;2023-09-30T12:30:12;18.10;99.90
59855;DHT22;45732;52.850;6.896;2023-09-30T12:32:39;18.10;99.90
59855;DHT22;45732;52.850;6.896;2023-09-30T12:35:05;18.30;99.90
59855;DHT22;45732;52.850;6.896;2023-09-30T12:37:31;18.30;99.90
59855;DHT22;45732;52.850;6.896;2023-09-30T12:39:58;18.40;99.90
59855;DHT22;45732;52.850;6.896;2023-09-30T12:42:24;18.40;99.90
59855;DHT22;45732;52.850;6.896;2023-09-30T12:44:50;18.50;99.90
59855;DHT22;45732;52.850;6.896;2023-09-30T12:47:15;18.40;99.90
59855;DHT22;45732;52.850;6.896;2023-09-30T12:49:41;18.40;99.90
59855;DHT22;45732;52.850;6.896;2023-09-30T12:52:07;18.40;99.90
59855;DHT22;45732;52.850;6.896;2023-09-30T12:54:33;18.40;99.90
59855;DHT22;45732;52.850;6.896;2023-09-30T12:56:59;18.40;99.90
59855;DHT22;45732;52.850;6.896;2023-09-30T12:59:25;18.40;99.90
59855;DHT22;45732;52.850;6.896;2023-09-30T13:01:51;18.50;99.90
59855;DHT22;45732;52.850;6.896;2023-09-30T13:04:17;18.50;99.90
59855;DHT22;45732;52.850;6.896;2023-09-30T13:06:44;18.60;99.90
59855;DHT22;45732;52.850;6.896;2023-09-30T13:09:10;18.60;99.90
59855;DHT22;45732;52.850;6.896;2023-09-30T13:11:37;18.60;99.90
59855;DHT22;45732;52.850;6.896;2023-09-30T13:14:03;18.70;99.90
59855;DHT22;45732;52.850;6.896;2023-09-30T13:16:29;18.70;99.90
59855;DHT22;45732;52.850;6.896;2023-09-30T13:18:55;18.70;99.90
59855;DHT22;45732;52.850;6.896;2023-09-30T13:21:20;18.70;99.90
59855;DHT22;45732;52.850;6.896;2023-09-30T13:23:46;18.60;99.90
59855;DHT22;45732;52.850;6.896;2023-09-30T13:26:12;18.60;99.90
59855;DHT22;45732;52.850;6.896;2023-09-30T13:28:38;18.60;99.90
59855;DHT22;45732;52.850;6.896;2023-09-30T13:31:05;18.50;99.90
59855;DHT22;45732;52.850;6.896;2023-09-30T13:33:30;18.40;99.90
59855;DHT22;45732;52.850;6.896;2023-09-30T13:35:56;18.40;99.90
59855;DHT22;45732;52.850;6.896;2023-09-30T13:38:22;18.40;99.90
59855;DHT22;45732;52.850;6.896;2023-09-30T13:40:48;18.40;99.90
59855;DHT22;45732;52.850;6.896;2023-09-30T13:43:14;18.50;99.90
59855;DHT22;45732;52.850;6.896;2023-09-30T13:45:39;18.50;99.90
59855;DHT22;45732;52.850;6.896;2023-09-30T13:48:06;18.50;99.90
59855;DHT22;45732;52.850;6.896;2023-09-30T13:50:32;18.50;99.90
59855;DHT22;45732;52.850;6.896;2023-09-30T13:52:57;18.50;99.90
59855;DHT22;45732;52.850;6.896;2023-09-30T13:55:26;18.60;99.90
59855;DHT22;45732;52.850;6.896;2023-09-30T13:57:52;18.60;99.90
59855;DHT22;45732;52.850;6.896;2023-09-30T14:00:17;18.70;99.90
59855;DHT22;45732;52.850;6.896;2023-09-30T14:02:43;18.70;99.90
59855;DHT22;45732;52.850;6.896;2023-09-30T14:05:09;18.70;99.90
59855;DHT22;45732;52.850;6.896;2023-09-30T14:07:36;18.70;99.90
59855;DHT22;45732;52.850;6.896;2023-09-30T14:10:03;18.60;99.90
59855;DHT22;45732;52.850;6.896;2023-09-30T14:12:29;18.60;99.90
59855;DHT22;45732;52.850;6.896;2023-09-30T14:14:55;18.60;99.90
59855;DHT22;45732;52.850;6.896;2023-09-30T14:17:21;18.60;99.90
59855;DHT22;45732;52.850;6.896;2023-09-30T14:19:46;18.50;99.90
59855;DHT22;45732;52.850;6.896;2023-09-30T14:22:12;18.50;99.90
59855;DHT22;45732;52.850;6.896;2023-09-30T14:24:38;18.50;99.90
59855;DHT22;45732;52.850;6.896;2023-09-30T14:27:04;18.50;99.90
59855;DHT22;45732;52.850;6.896;2023-09-30T14:29:30;18.50;99.90
59855;DHT22;45732;52.850;6.896;2023-09-30T14:31:56;18.50;99.90
59855;DHT22;45732;52.850;6.896;2023-09-30T14:34:23;18.50;99.90
59855;DHT22;45732;52.850;6.896;2023-09-30T14:36:49;18.60;99.90
59855;DHT22;45732;52.850;6.896;2023-09-30T14:39:16;18.60;99.90
59855;DHT22;45732;52.850;6.896;2023-09-30T14:41:43;18.70;99.90
59855;DHT22;45732;52.850;6.896;2023-09-30T14:44:09;18.70;99.90
59855;DHT22;45732;52.850;6.896;2023-09-30T14:46:40;18.70;99.90
59855;DHT22;45732;52.850;6.896;2023-09-30T14:49:06;18.60;99.90
59855;DHT22;45732;52.850;6.896;2023-09-30T14:51:33;18.70;99.90
59855;DHT22;45732;52.850;6.896;2023-09-30T14:53:59;18.70;99.90
59855;DHT22;45732;52.850;6.896;2023-09-30T14:56:25;18.70;99.90
59855;DHT22;45732;52.850;6.896;2023-09-30T14:58:50;18.80;99.90
59855;DHT22;45732;52.850;6.896;2023-09-30T15:01:16;18.70;99.90
59855;DHT22;45732;52.850;6.896;2023-09-30T15:03:42;18.70;99.90
59855;DHT22;45732;52.850;6.896;2023-09-30T15:06:09;18.70;99.90
59855;DHT22;45732;52.850;6.896;2023-09-30T15:08:35;18.70;99.90
59855;DHT22;45732;52.850;6.896;2023-09-30T15:11:01;18.80;99.90
59855;DHT22;45732;52.850;6.896;2023-09-30T15:13:27;18.80;99.90
59855;DHT22;45732;52.850;6.896;2023-09-30T15:15:53;18.80;99.90
59855;DHT22;45732;52.850;6.896;2023-09-30T15:18:19;18.90;99.90
59855;DHT22;45732;52.850;6.896;2023-09-30T15:20:45;18.90;99.90
59855;DHT22;45732;52.850;6.896;2023-09-30T15:23:13;18.90;99.90
59855;DHT22;45732;52.850;6.896;2023-09-30T15:25:42;18.90;99.90
59855;DHT22;45732;52.850;6.896;2023-09-30T15:28:13;18.90;99.90
59855;DHT22;45732;52.850;6.896;2023-09-30T15:30:39;18.80;99.90
59855;DHT22;45732;52.850;6.896;2023-09-30T15:33:05;18.80;99.90
59855;DHT22;45732;52.850;6.896;2023-09-30T15:35:31;18.70;99.90
59855;DHT22;45732;52.850;6.896;2023-09-30T15:37:57;18.70;99.90
59855;DHT22;45732;52.850;6.896;2023-09-30T15:40:24;18.60;99.90
59855;DHT22;45732;52.850;6.896;2023-09-30T15:42:49;18.60;99.90
59855;DHT22;45732;52.850;6.896;2023-09-30T15:45:15;18.50;99.90
59855;DHT22;45732;52.850;6.896;2023-09-30T15:47:43;18.50;99.90
59855;DHT22;45732;52.850;6.896;2023-09-30T15:50:10;18.50;99.90